Time;durP1;ratioP1;P1;durP2;ratioP2;P2;SDS_P1;SDS_P2;PMS_P1;PMS_P2;Temp;Humidity;BMP_temperature;BMP_pressure;BME280_temperature;BME280_humidity;BME280_pressure;Samples;Min_cycle;Max_cycle;Signal;HPM_P1;HPM_P2
2022/08/04 00:00:09;;;;;;;3.75;2.90;;;25.30;79.60;;;;;;4956328;28;20035;-45
2022/08/04 00:02:55;;;;;;;3.22;2.90;;;25.30;79.60;;;;;;4956210;28;20023;-45
2022/08/04 00:05:45;;;;;;;3.88;2.90;;;25.30;80.00;;;;;;4956139;28;20030;-45
2022/08/04 00:08:25;;;;;;;9.77;3.03;;;25.30;80.00;;;;;;4956102;28;20063;-50
2022/08/04 00:10:57;;;;;;;3.88;2.70;;;25.30;79.50;;;;;;4956251;28;20034;-46
2022/08/04 00:13:24;;;;;;;3.42;3.13;;;25.30;80.20;;;;;;4954388;28;20032;-46
2022/08/04 00:15:56;;;;;;;7.40;3.45;;;25.30;79.50;;;;;;4955847;28;20551;-47
2022/08/04 00:18:32;;;;;;;4.35;2.90;;;25.20;79.60;;;;;;4955955;28;20493;-46
2022/08/04 00:20:59;;;;;;;5.50;3.10;;;25.20;79.40;;;;;;4955784;28;20499;-47
2022/08/04 00:23:26;;;;;;;3.45;2.78;;;25.20;79.40;;;;;;4955584;28;20038;-47
2022/08/04 00:25:52;;;;;;;3.47;3.17;;;25.20;79.50;;;;;;4954469;28;20033;-46
2022/08/04 00:28:18;;;;;;;3.53;3.17;;;25.10;79.50;;;;;;4955786;28;20397;-45
2022/08/04 00:30:44;;;;;;;4.53;3.40;;;25.00;79.70;;;;;;4955740;28;20020;-47
2022/08/04 00:33:10;;;;;;;5.88;2.90;;;25.00;80.10;;;;;;4953895;28;20083;-47
2022/08/04 00:35:38;;;;;;;5.72;3.47;;;25.00;80.10;;;;;;4955708;28;20031;-45
2022/08/04 00:38:04;;;;;;;10.27;3.53;;;25.00;80.20;;;;;;4954178;28;20027;-49
2022/08/04 00:40:47;;;;;;;5.57;3.30;;;25.00;80.20;;;;;;4955474;29;20040;-47
2022/08/04 00:43:32;;;;;;;4.95;3.38;;;25.00;80.20;;;;;;4956031;28;20035;-45
2022/08/04 00:46:19;;;;;;;3.30;3.00;;;24.90;80.50;;;;;;4955226;28;20051;-48
2022/08/04 00:49:09;;;;;;;3.90;3.17;;;24.80;80.90;;;;;;4955417;28;20030;-44
2022/08/04 00:51:41;;;;;;;4.03;3.20;;;24.70;81.50;;;;;;4955151;28;20106;-45
2022/08/04 00:54:09;;;;;;;3.50;3.20;;;24.70;81.90;;;;;;4954846;28;20081;-46
2022/08/04 00:57:01;;;;;;;5.55;2.90;;;24.60;81.60;;;;;;4955383;28;20031;-45
2022/08/04 01:00:05;;;;;;;6.00;3.35;;;24.60;81.70;;;;;;4955252;28;20039;-48
2022/08/04 01:03:00;;;;;;;11.20;2.92;;;24.50;81.90;;;;;;4955043;28;20106;-45
2022/08/04 01:05:50;;;;;;;3.65;2.75;;;24.40;82.30;;;;;;4954722;28;20513;-46
2022/08/04 01:08:40;;;;;;;3.50;3.20;;;24.30;82.20;;;;;;4944187;28;20089;-46
2022/08/04 01:11:31;;;;;;;6.15;3.35;;;24.50;82.10;;;;;;4954747;28;20034;-46
2022/08/04 01:14:44;;;;;;;5.97;3.50;;;24.50;82.10;;;;;;4954572;28;20027;-45
2022/08/04 01:17:23;;;;;;;4.30;3.03;;;24.50;82.10;;;;;;4948460;28;20039;-45
2022/08/04 01:20:00;;;;;;;5.85;2.75;;;24.50;82.40;;;;;;4954882;28;20019;-45
2022/08/04 01:22:31;;;;;;;4.00;3.10;;;24.40;82.70;;;;;;4954765;28;20100;-45
2022/08/04 01:25:35;;;;;;;3.10;2.90;;;24.40;83.00;;;;;;4954400;28;20119;-44
2022/08/04 01:28:51;;;;;;;7.00;2.70;;;24.30;83.00;;;;;;4954712;28;20024;-45
2022/08/04 01:31:54;;;;;;;5.38;2.95;;;24.40;83.30;;;;;;4945682;28;20035;-43
2022/08/04 01:34:21;;;;;;;7.30;3.05;;;24.40;84.70;;;;;;4954338;28;20054;-45
2022/08/04 01:37:15;;;;;;;8.77;3.13;;;24.40;85.10;;;;;;4954400;28;20035;-44
2022/08/04 01:40:00;;;;;;;9.27;3.58;;;24.50;84.00;;;;;;4954474;28;20436;-47
2022/08/04 01:42:29;;;;;;;3.58;3.15;;;24.50;83.60;;;;;;4954601;28;20154;-47
2022/08/04 01:44:59;;;;;;;6.93;3.50;;;24.40;83.90;;;;;;4953846;28;20063;-46
2022/08/04 01:47:28;;;;;;;5.25;3.35;;;24.40;84.00;;;;;;4954197;28;20412;-49
2022/08/04 01:50:07;;;;;;;7.53;3.45;;;24.40;84.10;;;;;;4954187;28;20096;-43
2022/08/04 01:52:35;;;;;;;4.00;2.90;;;24.30;84.60;;;;;;4954194;28;20031;-44
2022/08/04 01:55:03;;;;;;;3.55;3.22;;;24.20;84.80;;;;;;4953954;28;20106;-46
2022/08/04 01:57:32;;;;;;;6.15;3.58;;;24.10;85.40;;;;;;4954000;28;20511;-47
2022/08/04 01:59:59;;;;;;;4.68;2.40;;;24.10;86.10;;;;;;4954186;28;20027;-44
2022/08/04 02:02:24;;;;;;;5.80;2.88;;;24.10;86.80;;;;;;4953811;28;20382;-47
2022/08/04 02:04:50;;;;;;;5.30;3.42;;;24.10;87.40;;;;;;4953661;28;20038;-45
2022/08/04 02:07:29;;;;;;;7.47;3.30;;;24.00;87.10;;;;;;4953740;28;20035;-46
2022/08/04 02:10:03;;;;;;;5.68;3.42;;;24.00;87.00;;;;;;4954000;28;20062;-45
2022/08/04 02:13:01;;;;;;;4.63;3.78;;;23.90;87.20;;;;;;4953318;28;20031;-48
2022/08/04 02:15:41;;;;;;;5.70;3.50;;;23.90;87.70;;;;;;4953795;28;20058;-47
2022/08/04 02:18:26;;;;;;;6.13;3.60;;;23.80;87.90;;;;;;4953844;28;20019;-47
2022/08/04 02:20:59;;;;;;;;;;;23.80;88.30;;;;;;4954019;28;20062;-45
2022/08/04 02:23:45;;;;;;;4.22;3.40;;;23.80;88.60;;;;;;4953587;28;19929;-48
2022/08/04 02:26:15;;;;;;;4.28;3.97;;;23.80;89.00;;;;;;4953635;28;20031;-50
2022/08/04 02:29:12;;;;;;;5.32;3.50;;;23.80;89.50;;;;;;4953709;28;20035;-46
2022/08/04 02:32:01;;;;;;;4.90;3.55;;;23.70;89.60;;;;;;4953529;28;20441;-49
2022/08/04 02:34:32;;;;;;;4.45;3.50;;;23.60;90.20;;;;;;4953209;28;20031;-49
2022/08/04 02:36:59;;;;;;;5.15;3.42;;;23.60;90.40;;;;;;4953455;28;20036;-46
2022/08/04 02:39:32;;;;;;;9.15;3.75;;;23.60;90.60;;;;;;4953768;28;20042;-45
2022/08/04 02:41:58;;;;;;;4.07;3.70;;;23.40;91.00;;;;;;4953429;28;20524;-47
2022/08/04 02:44:26;;;;;;;4.35;3.90;;;23.40;91.30;;;;;;4953306;28;20035;-44
2022/08/04 02:46:53;;;;;;;6.65;3.83;;;23.40;91.50;;;;;;4953348;28;20029;-44
2022/08/04 02:49:21;;;;;;;8.27;3.85;;;23.40;91.60;;;;;;4953391;28;20425;-47
2022/08/04 02:51:51;;;;;;;5.30;3.63;;;23.40;91.70;;;;;;4953509;28;20027;-47
2022/08/04 02:54:20;;;;;;;4.10;3.80;;;23.30;92.10;;;;;;4952897;28;20023;-50
2022/08/04 02:56:49;;;;;;;4.28;3.88;;;23.20;92.40;;;;;;4955565;28;20020;-49
2022/08/04 02:59:18;;;;;;;4.80;3.20;;;23.20;92.60;;;;;;4957284;28;20385;-49
2022/08/04 03:01:43;;;;;;;4.40;4.00;;;23.20;92.80;;;;;;4957309;28;20429;-46
2022/08/04 03:04:28;;;;;;;6.03;3.85;;;23.20;93.00;;;;;;4956943;28;20042;-45
2022/08/04 03:07:15;;;;;;;4.47;3.97;;;23.20;93.10;;;;;;4956932;28;20039;-44
2022/08/04 03:10:04;;;;;;;3.85;3.55;;;23.20;93.20;;;;;;4957142;28;20023;-48
2022/08/04 03:12:55;;;;;;;5.35;3.80;;;23.30;93.40;;;;;;4952433;29;20119;-46
2022/08/04 03:15:39;;;;;;;8.35;4.80;;;23.30;93.50;;;;;;4956794;28;20031;-46
2022/08/04 03:18:33;;;;;;;6.87;4.07;;;23.30;93.60;;;;;;4957027;28;20544;-45
2022/08/04 03:21:36;;;;;;;6.70;4.13;;;23.30;93.80;;;;;;4956828;28;20027;-49
2022/08/04 03:24:42;;;;;;;5.03;4.25;;;23.20;94.00;;;;;;4956493;28;20030;-45
2022/08/04 03:27:40;;;;;;;6.20;4.50;;;23.20;94.20;;;;;;4956828;28;20028;-45
2022/08/04 03:30:28;;;;;;;4.20;3.80;;;23.20;94.50;;;;;;4956821;28;20051;-48
2022/08/04 03:33:29;;;;;;;4.50;4.10;;;23.10;94.60;;;;;;4956303;29;20177;-47
2022/08/04 03:36:30;;;;;;;6.10;4.13;;;23.00;95.00;;;;;;4956589;28;20031;-48
2022/08/04 03:39:02;;;;;;;4.30;3.95;;;22.80;95.50;;;;;;4948120;28;20035;-45
2022/08/04 03:41:55;;;;;;;4.93;4.38;;;22.80;95.80;;;;;;4956489;28;20027;-45
2022/08/04 03:44:39;;;;;;;5.78;4.40;;;22.70;96.00;;;;;;4956356;28;20420;-46
2022/08/04 03:47:31;;;;;;;4.78;4.38;;;22.70;96.20;;;;;;4956431;28;20053;-47
2022/08/04 03:50:19;;;;;;;4.45;3.90;;;22.80;96.40;;;;;;4956227;28;20062;-47
2022/08/04 03:53:09;;;;;;;4.55;4.25;;;22.80;96.50;;;;;;4956259;28;20035;-46
2022/08/04 03:56:01;;;;;;;9.50;4.72;;;22.90;96.60;;;;;;4956224;28;20038;-45
2022/08/04 03:58:55;;;;;;;5.47;4.82;;;23.00;96.60;;;;;;4956264;28;20031;-45
2022/08/04 04:01:39;;;;;;;5.20;4.30;;;22.90;96.80;;;;;;4956204;28;20035;-45
2022/08/04 04:04:24;;;;;;;5.20;4.50;;;22.80;97.00;;;;;;4955818;28;20027;-45
2022/08/04 04:07:14;;;;;;;5.60;4.55;;;22.70;97.40;;;;;;4955669;28;20093;-45
2022/08/04 04:09:58;;;;;;;4.50;4.10;;;22.70;97.70;;;;;;4956113;28;20386;-47
2022/08/04 04:12:43;;;;;;;5.20;4.68;;;22.70;97.90;;;;;;4955577;28;20031;-46
2022/08/04 04:15:45;;;;;;;7.25;4.88;;;22.70;97.90;;;;;;4955677;28;20032;-45
2022/08/04 04:18:15;;;;;;;7.57;4.57;;;22.80;98.10;;;;;;4956030;28;20028;-47
2022/08/04 04:20:57;;;;;;;7.20;4.22;;;22.80;98.20;;;;;;4955801;28;20090;-46
2022/08/04 04:23:45;;;;;;;4.95;4.30;;;22.70;98.20;;;;;;4955629;28;20046;-47
2022/08/04 04:26:29;;;;;;;6.68;4.60;;;22.70;98.40;;;;;;4955798;28;20064;-46
2022/08/04 04:29:13;;;;;;;7.85;4.88;;;22.60;98.70;;;;;;4955766;28;20030;-44
2022/08/04 04:32:13;;;;;;;7.15;4.68;;;22.60;98.90;;;;;;4955528;28;20027;-45
2022/08/04 04:34:49;;;;;;;6.40;4.55;;;22.70;98.70;;;;;;4955211;28;20051;-46
2022/08/04 04:37:39;;;;;;;7.25;4.82;;;22.70;98.80;;;;;;4956083;28;20066;-45
2022/08/04 04:40:38;;;;;;;7.70;4.45;;;22.70;98.80;;;;;;4955927;28;20584;-46
2022/08/04 04:43:16;;;;;;;5.13;4.63;;;22.80;98.80;;;;;;4955255;28;20038;-44
2022/08/04 04:46:12;;;;;;;7.05;4.18;;;22.80;99.00;;;;;;4955161;28;20031;-48
2022/08/04 04:48:45;;;;;;;;;;;22.80;99.10;;;;;;4955799;28;20023;-45
2022/08/04 04:51:22;;;;;;;4.90;4.50;;;22.70;99.20;;;;;;4955372;28;19997;-46
2022/08/04 04:54:16;;;;;;;5.80;4.68;;;22.80;99.30;;;;;;4954935;28;20019;-48
2022/08/04 04:56:52;;;;;;;6.65;4.40;;;22.80;99.30;;;;;;4955116;28;20025;-47
2022/08/04 04:59:21;;;;;;;4.45;4.05;;;23.00;99.40;;;;;;4953891;28;20027;-44
2022/08/04 05:02:08;;;;;;;7.40;4.72;;;23.20;99.20;;;;;;4954881;28;20066;-46
2022/08/04 05:04:54;;;;;;;5.18;4.40;;;23.50;98.60;;;;;;4954623;28;20023;-45
2022/08/04 05:07:51;;;;;;;4.85;4.45;;;23.80;97.90;;;;;;4954922;28;20078;-45
2022/08/04 05:10:44;;;;;;;5.28;4.72;;;24.40;96.80;;;;;;4955377;28;20433;-45
2022/08/04 05:13:24;;;;;;;4.45;4.05;;;24.90;95.70;;;;;;4954747;28;20023;-44
2022/08/04 05:15:55;;;;;;;4.93;4.45;;;25.30;95.10;;;;;;4954716;28;20026;-46
2022/08/04 05:18:24;;;;;;;4.43;4.03;;;25.80;94.30;;;;;;4954246;28;20023;-48
2022/08/04 05:21:01;;;;;;;5.05;3.78;;;26.40;93.00;;;;;;4954699;28;20051;-45
2022/08/04 05:23:29;;;;;;;4.03;3.63;;;26.80;92.20;;;;;;4954479;28;20027;-50
2022/08/04 05:25:58;;;;;;;3.85;3.47;;;27.20;91.40;;;;;;4954573;28;20035;-46
2022/08/04 05:28:31;;;;;;;9.95;4.10;;;27.70;90.50;;;;;;4954579;28;20107;-50
2022/08/04 05:31:01;;;;;;;6.50;3.70;;;27.90;89.60;;;;;;4955610;28;20026;-47
2022/08/04 05:33:34;;;;;;;4.68;3.58;;;28.10;88.30;;;;;;4954186;28;20433;-46
2022/08/04 05:36:06;;;;;;;5.20;3.40;;;28.20;87.90;;;;;;4954465;28;20070;-47
2022/08/04 05:38:38;;;;;;;5.18;3.75;;;28.40;87.30;;;;;;4954301;28;20042;-46
2022/08/04 05:41:06;;;;;;;3.28;3.08;;;28.60;86.70;;;;;;4954388;28;20039;-46
2022/08/04 05:43:32;;;;;;;5.85;3.72;;;28.90;85.80;;;;;;4954080;28;20039;-48
2022/08/04 05:45:59;;;;;;;4.57;3.30;;;29.10;85.20;;;;;;4954126;28;20054;-48
2022/08/04 05:48:26;;;;;;;4.88;3.38;;;29.60;84.00;;;;;;4954223;28;20027;-46
2022/08/04 05:50:52;;;;;;;12.02;3.05;;;30.20;82.00;;;;;;4954390;28;20115;-48
2022/08/04 05:53:19;;;;;;;3.58;3.22;;;30.50;80.00;;;;;;4953850;28;20386;-48
2022/08/04 05:55:46;;;;;;;3.63;3.17;;;31.00;78.50;;;;;;4954045;28;20038;-48
2022/08/04 05:58:15;;;;;;;6.35;3.20;;;31.40;77.30;;;;;;4954096;28;20034;-48
2022/08/04 06:00:41;;;;;;;6.47;3.15;;;31.30;77.10;;;;;;4957167;28;20054;-47
2022/08/04 06:03:09;;;;;;;5.00;3.15;;;31.20;77.10;;;;;;4956589;29;20027;-48
2022/08/04 06:05:35;;;;;;;8.48;2.67;;;31.20;76.80;;;;;;4954356;28;20118;-49
2022/08/04 06:08:00;;;;;;;4.93;3.15;;;31.30;76.50;;;;;;4954084;28;20067;-49
2022/08/04 06:10:27;;;;;;;5.95;3.10;;;31.20;76.60;;;;;;4953916;28;20552;-49
2022/08/04 06:12:57;;;;;;;9.60;3.30;;;31.60;76.00;;;;;;4953034;28;20485;-50
2022/08/04 06:15:23;;;;;;;4.07;3.20;;;32.20;74.60;;;;;;4948805;28;20028;-48
2022/08/04 06:17:54;;;;;;;3.22;2.60;;;32.40;73.40;;;;;;4952694;28;20034;-47
2022/08/04 06:20:25;;;;;;;4.85;3.28;;;32.50;73.30;;;;;;4952075;29;20572;-47
2022/08/04 06:22:57;;;;;;;3.80;2.78;;;32.90;72.80;;;;;;4953384;28;20031;-50
2022/08/04 06:25:29;;;;;;;4.78;2.67;;;33.10;72.20;;;;;;4951503;29;20113;-47
2022/08/04 06:27:56;;;;;;;5.07;2.88;;;33.40;71.90;;;;;;4955119;28;20023;-46
2022/08/04 06:30:25;;;;;;;3.08;2.88;;;33.50;71.00;;;;;;4953543;28;20023;-48
2022/08/04 06:32:55;;;;;;;4.80;2.92;;;33.80;70.60;;;;;;4953253;28;20027;-46
2022/08/04 06:35:23;;;;;;;3.20;3.00;;;34.20;70.00;;;;;;4953381;28;20035;-47
2022/08/04 06:37:50;;;;;;;6.45;3.22;;;34.50;69.10;;;;;;4953513;28;20034;-51
2022/08/04 06:40:21;;;;;;;10.63;3.17;;;34.80;68.00;;;;;;4953489;28;20031;-47
2022/08/04 06:42:48;;;;;;;4.88;2.60;;;35.10;67.90;;;;;;4953289;28;20055;-48
2022/08/04 06:45:14;;;;;;;4.15;2.65;;;35.10;67.90;;;;;;4953195;28;20039;-46
2022/08/04 06:47:41;;;;;;;3.72;2.65;;;35.30;67.80;;;;;;4953775;28;20384;-47
2022/08/04 06:50:08;;;;;;;7.38;2.67;;;35.20;67.30;;;;;;4953635;28;20059;-44
2022/08/04 06:52:34;;;;;;;7.07;2.90;;;35.70;67.20;;;;;;4953471;28;20459;-49
2022/08/04 06:55:00;;;;;;;6.82;2.83;;;35.90;65.90;;;;;;4953030;28;20115;-48
2022/08/04 06:57:28;;;;;;;3.58;2.50;;;35.90;65.10;;;;;;4953324;28;20377;-44
2022/08/04 06:59:59;;;;;;;4.15;2.85;;;36.00;64.60;;;;;;4953244;28;20023;-46
2022/08/04 07:02:28;;;;;;;3.63;2.63;;;36.70;63.70;;;;;;4953213;28;20106;-48
2022/08/04 07:04:54;;;;;;;4.85;2.78;;;37.40;63.30;;;;;;4952891;28;20039;-45
2022/08/04 07:07:22;;;;;;;3.33;2.58;;;38.10;62.50;;;;;;4953039;28;20089;-48
2022/08/04 07:09:48;;;;;;;5.32;2.20;;;38.40;61.30;;;;;;4953185;28;20146;-48
2022/08/04 07:12:19;;;;;;;3.03;2.50;;;38.40;60.90;;;;;;4953066;28;20445;-47
2022/08/04 07:14:45;;;;;;;2.45;1.95;;;38.30;60.80;;;;;;4952755;28;20039;-47
2022/08/04 07:17:12;;;;;;;2.70;2.50;;;38.40;60.80;;;;;;4953131;28;20038;-48
2022/08/04 07:19:38;;;;;;;4.40;2.40;;;38.60;60.10;;;;;;4953077;28;20035;-45
2022/08/04 07:22:07;;;;;;;3.78;2.63;;;38.50;60.10;;;;;;4953092;28;20135;-48
2022/08/04 07:24:34;;;;;;;4.88;2.53;;;39.00;60.00;;;;;;4952838;28;20507;-47
2022/08/04 07:27:01;;;;;;;4.60;2.65;;;39.30;60.00;;;;;;4952964;28;20034;-49
2022/08/04 07:29:27;;;;;;;3.75;2.53;;;39.60;59.60;;;;;;4952841;28;20074;-48
2022/08/04 07:31:58;;;;;;;5.53;2.20;;;39.60;58.70;;;;;;4953035;28;20082;-48
2022/08/04 07:34:25;;;;;;;4.80;2.60;;;39.80;58.80;;;;;;4952673;28;20035;-50
2022/08/04 07:36:53;;;;;;;6.88;2.22;;;39.60;58.10;;;;;;4953113;28;20495;-48
2022/08/04 07:39:20;;;;;;;4.10;2.38;;;39.60;58.10;;;;;;4952984;28;20035;-45
2022/08/04 07:41:47;;;;;;;3.80;2.30;;;39.30;58.30;;;;;;4952971;28;20035;-49
2022/08/04 07:44:14;;;;;;;7.22;2.70;;;39.30;58.30;;;;;;4956122;28;20023;-45
2022/08/04 07:46:40;;;;;;;3.80;2.15;;;39.90;58.40;;;;;;4956412;28;20184;-47
2022/08/04 07:49:07;;;;;;;8.77;2.28;;;40.40;57.80;;;;;;4956519;28;20437;-44
2022/08/04 07:51:34;;;;;;;2.75;2.10;;;40.70;56.80;;;;;;4955736;28;20500;-46
2022/08/04 07:54:04;;;;;;;5.90;2.03;;;40.70;55.40;;;;;;4956676;28;20039;-46
2022/08/04 07:56:31;;;;;;;2.67;2.20;;;40.90;54.70;;;;;;4956487;28;20489;-50
2022/08/04 07:58:58;;;;;;;2.50;1.80;;;41.00;54.80;;;;;;4955751;28;20031;-49
2022/08/04 08:01:24;;;;;;;7.00;2.05;;;40.90;55.20;;;;;;4955067;28;20031;-48
2022/08/04 08:03:52;;;;;;;5.03;1.80;;;41.30;55.20;;;;;;4957687;28;20054;-50
2022/08/04 08:06:18;;;;;;;7.05;2.40;;;41.10;55.20;;;;;;4961863;28;20027;-51
2022/08/04 08:08:43;;;;;;;1.98;1.60;;;41.70;53.70;;;;;;4962991;28;20107;-50
2022/08/04 08:11:10;;;;;;;2.88;1.58;;;41.50;53.10;;;;;;4961932;28;20027;-48
2022/08/04 08:13:36;;;;;;;4.55;1.85;;;41.30;53.50;;;;;;4961862;28;20389;-48
2022/08/04 08:16:03;;;;;;;8.23;2.08;;;41.30;53.10;;;;;;4950428;29;20039;-50
2022/08/04 08:18:29;;;;;;;5.32;2.15;;;41.50;52.80;;;;;;4944549;29;20090;-50
2022/08/04 08:20:55;;;;;;;4.53;2.00;;;41.20;53.20;;;;;;4946460;29;20035;-50
2022/08/04 08:23:21;;;;;;;9.18;2.17;;;41.70;51.70;;;;;;4956647;29;20031;-47
2022/08/04 08:25:47;;;;;;;3.85;1.83;;;41.90;51.30;;;;;;4956952;28;20027;-50
2022/08/04 08:28:14;;;;;;;3.10;1.85;;;42.10;52.00;;;;;;4948203;28;20481;-47
2022/08/04 08:30:40;;;;;;;4.75;1.95;;;41.70;51.50;;;;;;4952372;29;20507;-49
2022/08/04 08:33:08;;;;;;;4.65;1.70;;;41.80;51.50;;;;;;4955006;28;20035;-48
2022/08/04 08:35:41;;;;;;;3.53;2.13;;;41.80;51.30;;;;;;4955412;28;20027;-53
2022/08/04 08:38:10;;;;;;;1.80;1.58;;;41.70;51.70;;;;;;4955645;28;20034;-50
2022/08/04 08:40:49;;;;;;;3.58;1.70;;;41.90;51.80;;;;;;4955583;28;20441;-48
2022/08/04 08:43:31;;;;;;;7.65;1.85;;;42.20;51.80;;;;;;4955057;28;20063;-51
2022/08/04 08:46:22;;;;;;;5.05;1.80;;;42.60;51.50;;;;;;4955115;28;20102;-50
2022/08/04 08:49:15;;;;;;;1.98;1.70;;;42.20;51.40;;;;;;4955448;28;20027;-47
2022/08/04 08:51:57;;;;;;;2.58;1.77;;;42.00;51.10;;;;;;4955185;28;20097;-47
2022/08/04 08:54:52;;;;;;;4.57;1.67;;;41.20;51.20;;;;;;4954920;28;20031;-51
2022/08/04 08:57:35;;;;;;;5.13;1.85;;;40.40;52.50;;;;;;4948075;29;20079;-51
2022/08/04 09:00:09;;;;;;;7.72;2.00;;;39.90;52.80;;;;;;4961208;28;20118;-44
2022/08/04 09:02:47;;;;;;;;;;;39.70;53.40;;;;;;4950729;28;20114;-49
2022/08/04 09:05:56;;;;;;;2.97;1.70;;;39.40;53.00;;;;;;4956302;28;19980;-50
2022/08/04 09:08:35;;;;;;;8.63;7.70;;;39.10;53.30;;;;;;4953221;28;20035;-47
2022/08/04 09:11:17;;;;;;;19.17;17.33;;;38.90;53.60;;;;;;4953906;29;20623;-50
2022/08/04 09:14:17;;;;;;;2.00;1.90;;;38.80;53.70;;;;;;4944914;28;20051;-45
2022/08/04 09:16:48;;;;;;;3.65;1.98;;;38.60;54.30;;;;;;4951304;28;20500;-48
2022/08/04 09:19:40;;;;;;;4.93;1.80;;;38.20;54.20;;;;;;4954661;28;20039;-49
2022/08/04 09:22:37;;;;;;;6.65;2.33;;;38.00;54.60;;;;;;4954719;28;20489;-55
2022/08/04 09:25:23;;;;;;;2.20;1.67;;;37.90;54.90;;;;;;4953469;28;20452;-54
2022/08/04 09:27:56;;;;;;;3.30;2.10;;;37.70;55.20;;;;;;4954513;28;20023;-47
2022/08/04 09:30:31;;;;;;;;;;;37.70;54.80;;;;;;4955024;28;20513;-45
2022/08/04 09:33:09;;;;;;;3.65;2.13;;;37.60;55.60;;;;;;4972752;28;19910;-49
2022/08/04 09:35:47;;;;;;;2.13;2.03;;;37.30;55.30;;;;;;4966330;28;20031;-49
2022/08/04 09:38:19;;;;;;;7.65;2.20;;;37.20;55.80;;;;;;4957276;28;20030;-46
2022/08/04 09:40:58;;;;;;;2.05;1.95;;;37.20;55.60;;;;;;4975309;28;20038;-45
2022/08/04 09:43:48;;;;;;;4.03;2.53;;;37.10;55.90;;;;;;4953667;28;20102;-44
2022/08/04 09:46:33;;;;;;;3.45;1.90;;;37.00;56.80;;;;;;4934961;29;20481;-45
2022/08/04 09:49:09;;;;;;;7.22;2.13;;;37.00;56.60;;;;;;4945104;29;20027;-48
2022/08/04 09:51:46;;;;;;;4.80;1.80;;;36.90;56.30;;;;;;4954229;28;20429;-48
2022/08/04 09:54:27;;;;;;;3.33;1.90;;;37.00;56.10;;;;;;4954012;28;20035;-45
2022/08/04 09:57:03;;;;;;;3.75;1.80;;;37.10;56.30;;;;;;4954311;28;20393;-48
2022/08/04 09:59:41;;;;;;;3.13;1.77;;;37.10;55.80;;;;;;4953328;28;20039;-45
2022/08/04 10:02:12;;;;;;;3.63;1.70;;;36.80;56.20;;;;;;4934807;29;20024;-43
2022/08/04 10:04:41;;;;;;;4.70;2.22;;;36.60;56.40;;;;;;4956304;28;20075;-48
2022/08/04 10:07:28;;;;;;;3.67;1.98;;;36.50;56.90;;;;;;4953728;28;20089;-47
2022/08/04 10:09:59;;;;;;;6.82;2.67;;;36.10;56.50;;;;;;4955213;28;20031;-49
2022/08/04 10:12:47;;;;;;;6.63;2.00;;;36.10;57.00;;;;;;4954400;29;20051;-45
2022/08/04 10:15:37;;;;;;;1.92;1.80;;;36.20;56.80;;;;;;4948617;29;20074;-47
2022/08/04 10:18:34;;;;;;;2.72;1.75;;;36.10;57.30;;;;;;4953072;28;20039;-48
2022/08/04 10:21:18;;;;;;;1.65;1.52;;;36.30;57.00;;;;;;4934499;29;20038;-45
2022/08/04 10:24:15;;;;;;;6.13;1.63;;;36.30;56.60;;;;;;4953493;28;20642;-44
2022/08/04 10:27:01;;;;;;;2.42;1.67;;;36.40;56.60;;;;;;4953573;28;20406;-45
2022/08/04 10:29:35;;;;;;;2.90;1.80;;;36.40;57.40;;;;;;4953514;28;20043;-51
2022/08/04 10:32:23;;;;;;;4.03;2.13;;;36.30;57.70;;;;;;4953574;28;20401;-44
2022/08/04 10:35:03;;;;;;;3.97;1.95;;;36.00;57.60;;;;;;4953278;28;20133;-47
2022/08/04 10:37:41;;;;;;;1.80;1.70;;;36.00;57.90;;;;;;4953075;28;20155;-48
2022/08/04 10:40:35;;;;;;;7.50;2.97;;;35.90;58.20;;;;;;4953371;28;20031;-44
2022/08/04 10:43:24;;;;;;;26.77;21.00;;;35.80;57.60;;;;;;4953152;28;20051;-49
2022/08/04 10:45:58;;;;;;;42.80;38.20;;;35.60;58.00;;;;;;4952322;28;20072;-48
2022/08/04 10:48:46;;;;;;;8.50;2.58;;;35.50;58.10;;;;;;4944664;29;20066;-50
2022/08/04 10:51:40;;;;;;;5.93;1.75;;;35.30;59.40;;;;;;4952825;28;20114;-47
2022/08/04 10:54:09;;;;;;;;;;;35.30;59.30;;;;;;4949342;29;20047;-49
2022/08/04 10:56:40;;;;;;;1.85;1.75;;;35.20;58.60;;;;;;4953197;28;20001;-45
2022/08/04 10:59:11;;;;;;;3.28;1.52;;;34.90;59.20;;;;;;4952797;29;20420;-47
2022/08/04 11:01:45;;;;;;;6.07;1.98;;;34.90;59.70;;;;;;4952820;28;20066;-43
2022/08/04 11:04:37;;;;;;;2.45;1.70;;;34.70;59.80;;;;;;4946590;29;20038;-45
2022/08/04 11:07:03;;;;;;;3.10;1.70;;;34.60;58.80;;;;;;4952802;29;20554;-44
2022/08/04 11:09:30;;;;;;;9.95;1.67;;;34.60;58.80;;;;;;4953242;28;20054;-47
2022/08/04 11:12:16;;;;;;;7.18;1.63;;;34.60;58.30;;;;;;4952652;28;20050;-44
2022/08/04 11:15:07;;;;;;;4.68;1.70;;;34.50;58.30;;;;;;4952610;28;20028;-44
2022/08/04 11:17:54;;;;;;;2.72;1.80;;;34.50;58.80;;;;;;4952392;28;20043;-44
2022/08/04 11:20:37;;;;;;;5.53;1.75;;;34.50;59.70;;;;;;4957107;28;20031;-45
2022/08/04 11:23:08;;;;;;;2.42;1.73;;;34.50;59.70;;;;;;4956460;28;20038;-52
2022/08/04 11:25:59;;;;;;;2.85;1.58;;;34.50;59.70;;;;;;4956826;28;20082;-46
2022/08/04 11:28:35;;;;;;;2.55;1.33;;;34.50;59.60;;;;;;4956602;28;20031;-47
2022/08/04 11:31:09;;;;;;;4.22;1.65;;;34.50;59.60;;;;;;4955982;28;20106;-47
2022/08/04 11:33:53;;;;;;;;;;;34.50;59.10;;;;;;4956518;28;20031;-45
2022/08/04 11:36:52;;;;;;;1.80;1.70;;;34.60;59.00;;;;;;4955076;28;19910;-47
2022/08/04 11:39:28;;;;;;;5.07;1.85;;;34.60;58.70;;;;;;4956089;28;20026;-48
2022/08/04 11:42:30;;;;;;;5.22;1.70;;;34.60;57.90;;;;;;4954652;29;20035;-51
2022/08/04 11:45:20;;;;;;;1.85;1.65;;;34.70;57.50;;;;;;4946098;29;20070;-45
2022/08/04 11:48:02;;;;;;;2.95;1.50;;;34.60;58.40;;;;;;4956588;28;20106;-46
2022/08/04 11:50:40;;;;;;;2.17;1.70;;;34.60;58.30;;;;;;4955733;28;20062;-46
2022/08/04 11:53:07;;;;;;;2.10;1.60;;;34.50;58.10;;;;;;4956011;28;20508;-46
2022/08/04 11:55:34;;;;;;;6.13;1.80;;;34.60;58.80;;;;;;4956398;28;20109;-49
2022/08/04 11:58:00;;;;;;;1.65;1.55;;;34.70;58.00;;;;;;4955699;28;20027;-49
2022/08/04 12:00:30;;;;;;;2.45;1.33;;;34.70;57.20;;;;;;4957258;28;20027;-54
2022/08/04 12:03:25;;;;;;;13.48;1.40;;;34.70;57.40;;;;;;4956069;28;20154;-57
2022/08/04 12:06:08;;;;;;;3.00;1.27;;;34.70;54.90;;;;;;4956076;28;20072;-49
2022/08/04 12:09:01;;;;;;;2.17;1.33;;;34.70;55.00;;;;;;4955842;28;20031;-54
2022/08/04 12:12:01;;;;;;;7.93;1.67;;;34.70;55.40;;;;;;4955941;28;20019;-49
2022/08/04 12:14:54;;;;;;;1.75;1.40;;;34.80;56.00;;;;;;4955836;28;20023;-50
2022/08/04 12:17:39;;;;;;;5.28;1.20;;;34.90;57.00;;;;;;4955940;28;20505;-51
2022/08/04 12:20:06;;;;;;;1.85;1.25;;;34.90;55.20;;;;;;4955764;28;20038;-52
2022/08/04 12:22:36;;;;;;;1.58;1.45;;;34.90;54.20;;;;;;4973496;23;20039;-45
2022/08/04 12:25:12;;;;;;;22.95;20.55;;;34.90;54.60;;;;;;4973287;28;20039;-45
2022/08/04 12:28:00;;;;;;;8.48;7.45;;;34.70;55.30;;;;;;4975461;28;20022;-48
2022/08/04 12:30:29;;;;;;;4.80;2.15;;;34.80;55.50;;;;;;4975414;28;20030;-49
2022/08/04 12:33:03;;;;;;;1.15;1.15;;;34.80;56.60;;;;;;4970140;28;20239;-46
2022/08/04 12:35:48;;;;;;;6.97;1.50;;;34.80;56.00;;;;;;4955676;28;20094;-48
2022/08/04 12:38:14;;;;;;;2.20;1.50;;;34.90;56.00;;;;;;4955492;28;20034;-45
2022/08/04 12:40:50;;;;;;;3.40;1.25;;;34.90;55.60;;;;;;4955596;28;20091;-47
2022/08/04 12:43:33;;;;;;;5.18;1.77;;;35.10;54.70;;;;;;4955068;28;20031;-46
2022/08/04 12:46:08;;;;;;;5.28;1.38;;;35.10;54.40;;;;;;4954196;29;20493;-49
2022/08/04 12:48:34;;;;;;;;;;;35.20;54.30;;;;;;4956153;28;20512;-49
2022/08/04 12:51:00;;;;;;;7.70;1.40;;;35.20;54.30;;;;;;4953891;29;19910;-46
2022/08/04 12:53:31;;;;;;;2.22;1.48;;;35.20;54.70;;;;;;4955012;28;20035;-48
2022/08/04 12:55:58;;;;;;;5.05;1.38;;;35.40;54.20;;;;;;4955333;28;20515;-49
2022/08/04 12:58:26;;;;;;;2.25;1.40;;;35.40;54.00;;;;;;4955425;28;20031;-47
2022/08/04 13:00:55;;;;;;;4.63;1.55;;;35.50;55.00;;;;;;4955417;28;20392;-49
2022/08/04 13:03:26;;;;;;;4.93;1.70;;;35.60;54.80;;;;;;4954765;28;20027;-46
2022/08/04 13:05:55;;;;;;;1.27;1.20;;;35.60;54.70;;;;;;4955327;28;20511;-48
2022/08/04 13:08:22;;;;;;;9.05;2.03;;;35.70;54.00;;;;;;4955144;28;20030;-53
2022/08/04 13:10:51;;;;;;;3.63;1.30;;;35.80;54.30;;;;;;4955172;28;20028;-46
2022/08/04 13:13:20;;;;;;;3.00;1.10;;;35.70;53.60;;;;;;4954369;28;20034;-47
2022/08/04 13:15:57;;;;;;;4.82;1.50;;;35.60;55.10;;;;;;4953847;29;20037;-50
2022/08/04 13:18:25;;;;;;;1.45;1.35;;;35.60;54.70;;;;;;4955049;28;20581;-47
2022/08/04 13:20:51;;;;;;;4.70;1.42;;;35.40;54.80;;;;;;4954917;28;20094;-44
2022/08/04 13:23:18;;;;;;;2.72;1.35;;;35.40;55.10;;;;;;4954482;28;20145;-45
2022/08/04 13:25:48;;;;;;;4.07;1.35;;;35.50;54.50;;;;;;4954820;28;20063;-44
2022/08/04 13:28:22;;;;;;;2.45;1.20;;;35.60;54.40;;;;;;4954770;28;20074;-47
2022/08/04 13:30:54;;;;;;;3.15;1.40;;;35.60;54.60;;;;;;4954693;28;20035;-44
2022/08/04 13:33:21;;;;;;;2.90;1.27;;;35.70;54.50;;;;;;4954217;28;20082;-50
2022/08/04 13:35:47;;;;;;;3.45;1.10;;;35.80;53.40;;;;;;4955158;28;20054;-49
2022/08/04 13:38:16;;;;;;;6.40;1.40;;;35.80;53.20;;;;;;4955710;28;20449;-44